Time;durP1;ratioP1;P1;durP2;ratioP2;P2;SDS_P1;SDS_P2;PMS_P1;PMS_P2;Temp;Humidity;BMP_temperature;BMP_pressure;BME280_temperature;BME280_humidity;BME280_pressure;Samples;Min_cycle;Max_cycle;Signal;HPM_P1;HPM_P2
2022/01/26 00:07:34;;;;;;;4.72;4.32;;;;;;;;;;6248193;23;19999;-75
2022/01/26 00:10:00;;;;;;;5.22;4.95;;;;;;;;;;6248253;22;20094;-74
2022/01/26 00:12:26;;;;;;;5.97;4.97;;;;;;;;;;6254266;23;20000;-74
2022/01/26 00:14:52;;;;;;;3.33;3.10;;;;;;;;;;6248089;22;19992;-74
2022/01/26 00:17:18;;;;;;;1.23;1.20;;;;;;;;;;6247157;23;20075;-74
2022/01/26 00:20:05;;;;;;;6.95;5.22;;;;;;;;;;6247267;23;20024;-74
2022/01/26 00:38:35;;;;;;;9.50;5.55;;;;;;;;;;6251782;23;20036;-79
2022/01/26 00:41:07;;;;;;;4.25;3.13;;;;;;;;;;6250272;23;19992;-79
2022/01/26 00:43:34;;;;;;;3.65;3.35;;;;;;;;;;6250167;23;20051;-79
2022/01/26 00:46:01;;;;;;;6.30;4.68;;;;;;;;;;6251958;22;19992;-78
2022/01/26 00:48:30;;;;;;;8.63;7.60;;;;;;;;;;6249388;23;19984;-79
2022/01/26 00:50:59;;;;;;;10.55;5.85;;;;;;;;;;6249026;23;19997;-81
2022/01/26 00:53:32;;;;;;;5.93;5.43;;;;;;;;;;6250274;22;20824;-78
2022/01/26 00:55:58;;;;;;;4.20;2.40;;;;;;;;;;6251320;22;19992;-79
2022/01/26 00:58:24;;;;;;;6.50;5.43;;;;;;;;;;6248970;23;20314;-79
2022/01/26 01:00:51;;;;;;;10.32;6.20;;;;;;;;;;6250980;22;20445;-79
2022/01/26 01:03:17;;;;;;;3.70;3.40;;;;;;;;;;6248339;23;20000;-79
2022/01/26 01:08:18;;;;;;;1.80;1.73;;;;;;;;;;6249560;22;20003;-80
2022/01/26 01:10:47;;;;;;;2.55;2.35;;;;;;;;;;6248525;23;20413;-79
2022/01/26 01:13:17;;;;;;;4.43;4.03;;;;;;;;;;6248076;23;20042;-79
2022/01/26 01:15:43;;;;;;;2.77;2.67;;;;;;;;;;6250013;22;19992;-79
2022/01/26 01:18:18;;;;;;;7.03;6.45;;;;;;;;;;6249249;22;20004;-79
2022/01/26 01:26:37;;;;;;;35.45;4.38;;;;;;;;;;6249006;22;19992;-79
2022/01/26 01:31:44;;;;;;;15.55;6.78;;;;;;;;;;6247932;23;20357;-74
2022/01/26 01:34:11;;;;;;;3.45;3.25;;;;;;;;;;6248424;22;20107;-74
2022/01/26 01:36:39;;;;;;;2.67;2.53;;;;;;;;;;6247317;22;19993;-75
2022/01/26 01:39:07;;;;;;;12.45;4.57;;;;;;;;;;6247855;22;20004;-75
2022/01/26 01:41:34;;;;;;;1.85;1.75;;;;;;;;;;6247934;22;19988;-75
2022/01/26 01:44:00;;;;;;;8.48;3.78;;;;;;;;;;6247327;22;19995;-75
2022/01/26 01:46:27;;;;;;;5.47;3.55;;;;;;;;;;6247916;22;20070;-75
2022/01/26 01:48:53;;;;;;;4.28;4.00;;;;;;;;;;6247855;22;19993;-75
2022/01/26 01:51:20;;;;;;;3.00;2.80;;;;;;;;;;6246597;23;20005;-74
2022/01/26 01:53:46;;;;;;;7.45;5.55;;;;;;;;;;6247912;22;19992;-75
2022/01/26 01:56:13;;;;;;;1.40;1.35;;;;;;;;;;6247015;23;20393;-76
2022/01/26 01:58:39;;;;;;;1.85;1.73;;;;;;;;;;6220904;23;20356;-75
2022/01/26 02:01:06;;;;;;;2.67;2.53;;;;;;;;;;6247588;22;20353;-75
2022/01/26 02:03:33;;;;;;;3.65;3.45;;;;;;;;;;6247703;22;19988;-75
2022/01/26 02:05:59;;;;;;;3.35;3.08;;;;;;;;;;6247898;22;20043;-75
2022/01/26 02:08:25;;;;;;;6.13;5.63;;;;;;;;;;6246341;23;19993;-75
2022/01/26 02:10:51;;;;;;;8.70;4.35;;;;;;;;;;6247873;22;20337;-75
2022/01/26 02:13:25;;;;;;;1.08;1.08;;;;;;;;;;6247248;22;19992;-75
2022/01/26 02:21:12;;;;;;;3.85;3.65;;;;;;;;;;6248638;22;20003;-75
2022/01/26 02:54:33;;;;;;;23.52;5.63;;;;;;;;;;6286293;22;19988;-75
2022/01/26 02:57:26;;;;;;;2.88;2.67;;;;;;;;;;6254039;22;20000;-75
2022/01/26 03:02:42;;;;;;;2.53;2.35;;;;;;;;;;6280048;22;20003;-75
2022/01/26 03:05:11;;;;;;;4.88;3.22;;;;;;;;;;6253438;22;20394;-74
2022/01/26 03:07:42;;;;;;;3.03;2.83;;;;;;;;;;6252631;22;19995;-74
2022/01/26 03:10:30;;;;;;;3.70;3.47;;;;;;;;;;6279702;22;19992;-75
2022/01/26 03:13:08;;;;;;;6.22;5.72;;;;;;;;;;6253066;22;19995;-75
2022/01/26 03:15:45;;;;;;;1.95;1.85;;;;;;;;;;6252594;22;20030;-76
2022/01/26 03:20:40;;;;;;;3.30;2.47;;;;;;;;;;6279554;22;19987;-75
2022/01/26 03:34:02;;;;;;;2.47;2.28;;;;;;;;;;6279112;22;19991;-74
2022/01/26 03:36:31;;;;;;;1.77;1.67;;;;;;;;;;6279134;22;20030;-74
2022/01/26 03:39:08;;;;;;;2.13;2.03;;;;;;;;;;6279341;22;20003;-75
2022/01/26 03:41:41;;;;;;;8.82;8.07;;;;;;;;;;6251894;22;20019;-74
2022/01/26 03:44:07;;;;;;;8.30;4.88;;;;;;;;;;6252078;22;20367;-74
2022/01/26 03:46:34;;;;;;;2.05;1.95;;;;;;;;;;6279028;22;19995;-75
2022/01/26 03:49:00;;;;;;;2.47;2.38;;;;;;;;;;6278837;22;20338;-74
2022/01/26 03:51:26;;;;;;;3.55;3.10;;;;;;;;;;6280605;22;20066;-73
2022/01/26 03:53:52;;;;;;;3.05;2.85;;;;;;;;;;6278956;22;19991;-75
2022/01/26 03:56:18;;;;;;;2.85;2.65;;;;;;;;;;6278428;22;19992;-75
2022/01/26 03:58:44;;;;;;;1.70;1.60;;;;;;;;;;6279091;22;20010;-75
2022/01/26 04:01:10;;;;;;;2.40;2.30;;;;;;;;;;6278884;22;20058;-73
2022/01/26 04:03:36;;;;;;;1.95;1.85;;;;;;;;;;6281957;22;20041;-74
2022/01/26 04:06:02;;;;;;;7.53;3.90;;;;;;;;;;6279108;22;19992;-74
2022/01/26 04:08:31;;;;;;;3.28;3.00;;;;;;;;;;6278211;22;19991;-76
2022/01/26 04:13:26;;;;;;;3.38;3.15;;;;;;;;;;6277932;22;20088;-74
2022/01/26 04:15:52;;;;;;;3.47;3.28;;;;;;;;;;6250961;22;19996;-75
2022/01/26 04:18:24;;;;;;;1.30;1.27;;;;;;;;;;6251389;22;20320;-74
2022/01/26 04:20:54;;;;;;;6.65;3.40;;;;;;;;;;6251670;22;19991;-77
2022/01/26 04:23:39;;;;;;;5.07;4.78;;;;;;;;;;6279148;22;20018;-74
2022/01/26 04:26:05;;;;;;;5.78;2.67;;;;;;;;;;6279248;22;19992;-74
2022/01/26 04:28:39;;;;;;;6.75;5.70;;;;;;;;;;6278462;22;20015;-74
2022/01/26 04:31:05;;;;;;;2.83;2.35;;;;;;;;;;6251029;22;20067;-74
2022/01/26 04:33:33;;;;;;;3.70;3.33;;;;;;;;;;6277731;22;20000;-74
2022/01/26 04:35:59;;;;;;;3.03;2.85;;;;;;;;;;6278508;22;19999;-75
2022/01/26 04:38:49;;;;;;;2.58;2.38;;;;;;;;;;6251393;22;19999;-76
2022/01/26 04:41:35;;;;;;;6.15;3.45;;;;;;;;;;6278021;22;20027;-75
2022/01/26 04:44:14;;;;;;;3.88;2.58;;;;;;;;;;6226011;22;20305;-74
2022/01/26 04:46:40;;;;;;;6.80;5.53;;;;;;;;;;6278988;22;20071;-75
2022/01/26 04:49:06;;;;;;;4.05;3.75;;;;;;;;;;6251018;22;20384;-75
2022/01/26 04:51:32;;;;;;;4.53;1.63;;;;;;;;;;6251558;22;20474;-77
2022/01/26 04:53:58;;;;;;;1.35;1.35;;;;;;;;;;6278276;22;20002;-75
2022/01/26 04:56:24;;;;;;;2.72;1.98;;;;;;;;;;6250563;22;20297;-75
2022/01/26 04:58:50;;;;;;;2.03;1.88;;;;;;;;;;6278059;22;20028;-75
2022/01/26 05:01:16;;;;;;;3.28;2.53;;;;;;;;;;6250940;22;19995;-74
2022/01/26 05:03:42;;;;;;;1.75;1.65;;;;;;;;;;6250661;22;20067;-75
2022/01/26 05:06:09;;;;;;;1.42;1.38;;;;;;;;;;6280635;22;20393;-75
2022/01/26 05:08:36;;;;;;;4.70;2.38;;;;;;;;;;6277222;22;20085;-74
2022/01/26 05:11:03;;;;;;;0.68;0.68;;;;;;;;;;6250296;22;20002;-75
2022/01/26 05:13:29;;;;;;;2.03;1.90;;;;;;;;;;6278387;22;19988;-76
2022/01/26 05:15:55;;;;;;;0.75;0.75;;;;;;;;;;6278175;22;20019;-75
2022/01/26 05:18:23;;;;;;;8.38;4.82;;;;;;;;;;6276843;22;20484;-75
2022/01/26 05:20:49;;;;;;;3.67;3.33;;;;;;;;;;6283079;22;19992;-75
2022/01/26 05:23:16;;;;;;;1.42;1.33;;;;;;;;;;6281871;22;19992;-74
2022/01/26 05:25:42;;;;;;;2.80;2.67;;;;;;;;;;6277882;22;19995;-74
2022/01/26 05:28:08;;;;;;;2.50;2.35;;;;;;;;;;6250445;22;20011;-74
2022/01/26 05:30:34;;;;;;;2.63;2.42;;;;;;;;;;6278138;22;20302;-74
2022/01/26 05:33:01;;;;;;;4.63;4.22;;;;;;;;;;6250711;22;20011;-75
2022/01/26 05:35:27;;;;;;;2.08;1.98;;;;;;;;;;6278573;22;20251;-75
2022/01/26 05:37:53;;;;;;;1.10;1.10;;;;;;;;;;6277498;22;20011;-75
2022/01/26 05:40:19;;;;;;;1.77;1.67;;;;;;;;;;6251445;22;19995;-78
2022/01/26 05:42:45;;;;;;;3.33;3.10;;;;;;;;;;6252813;22;19995;-76
2022/01/26 05:45:22;;;;;;;1.92;1.83;;;;;;;;;;6279318;22;20334;-77
2022/01/26 05:47:51;;;;;;;3.85;3.55;;;;;;;;;;6279045;22;20007;-77
2022/01/26 05:50:19;;;;;;;2.75;2.33;;;;;;;;;;6251135;22;20356;-78
2022/01/26 05:52:45;;;;;;;2.20;2.00;;;;;;;;;;6251460;22;20290;-77
2022/01/26 05:55:11;;;;;;;3.47;3.25;;;;;;;;;;6280193;22;19992;-75
2022/01/26 05:57:37;;;;;;;3.55;2.90;;;;;;;;;;6279811;22;20054;-77
2022/01/26 06:00:05;;;;;;;3.20;3.00;;;;;;;;;;6280465;22;19992;-77
2022/01/26 06:02:32;;;;;;;1.67;1.60;;;;;;;;;;6252305;22;20180;-75
2022/01/26 06:04:58;;;;;;;3.67;2.22;;;;;;;;;;6282298;22;20037;-76
2022/01/26 06:07:25;;;;;;;4.47;4.18;;;;;;;;;;6231173;22;20016;-78
2022/01/26 06:09:50;;;;;;;2.17;2.08;;;;;;;;;;6280622;22;20038;-76
2022/01/26 06:12:16;;;;;;;2.78;2.05;;;;;;;;;;6279573;22;20015;-76
2022/01/26 06:14:42;;;;;;;3.78;3.42;;;;;;;;;;6280120;22;20071;-76
2022/01/26 06:17:08;;;;;;;20.92;5.10;;;;;;;;;;6252330;22;19996;-76
2022/01/26 06:19:34;;;;;;;4.82;1.98;;;;;;;;;;6252686;22;19996;-75
2022/01/26 06:22:00;;;;;;;3.85;2.58;;;;;;;;;;6252508;22;20027;-76
2022/01/26 06:24:26;;;;;;;3.17;2.63;;;;;;;;;;6279544;22;20063;-76
2022/01/26 06:26:53;;;;;;;2.03;1.88;;;;;;;;;;6280587;22;20356;-76
2022/01/26 06:29:19;;;;;;;1.92;1.83;;;;;;;;;;6253394;22;20015;-76
2022/01/26 06:31:45;;;;;;;2.75;2.55;;;;;;;;;;6261980;22;20082;-77
2022/01/26 06:34:12;;;;;;;1.95;1.85;;;;;;;;;;6238534;22;20007;-75
2022/01/26 06:36:42;;;;;;;2.92;2.72;;;;;;;;;;6233265;22;20428;-76
2022/01/26 06:39:10;;;;;;;2.60;2.47;;;;;;;;;;6284645;22;20298;-75
2022/01/26 06:41:36;;;;;;;46.97;2.92;;;;;;;;;;6279243;22;20348;-76
2022/01/26 06:44:14;;;;;;;1.77;1.67;;;;;;;;;;6278652;22;20049;-76
2022/01/26 06:47:18;;;;;;;1.05;0.98;;;;;;;;;;6255949;22;20010;-77
2022/01/26 06:52:01;;;;;;;2.92;2.72;;;;;;;;;;6234095;22;20012;-81
2022/01/26 06:54:27;;;;;;;3.45;3.17;;;;;;;;;;6257551;22;20019;-81
2022/01/26 06:56:53;;;;;;;2.67;2.58;;;;;;;;;;6256782;22;20386;-81
2022/01/26 06:59:21;;;;;;;3.10;2.90;;;;;;;;;;6256895;22;20015;-81
2022/01/26 07:01:47;;;;;;;2.42;2.33;;;;;;;;;;6258302;22;20019;-80
2022/01/26 07:04:13;;;;;;;3.55;3.30;;;;;;;;;;6256109;23;20321;-80
2022/01/26 07:06:39;;;;;;;11.65;3.53;;;;;;;;;;6254574;23;20012;-80
2022/01/26 07:09:05;;;;;;;1.58;1.48;;;;;;;;;;6258005;22;20008;-74
2022/01/26 07:11:50;;;;;;;0.90;0.90;;;;;;;;;;6231150;22;20347;-75
2022/01/26 07:22:46;;;;;;;3.70;3.40;;;;;;;;;;6275426;22;20067;-75
2022/01/26 07:25:41;;;;;;;2.80;2.60;;;;;;;;;;6204455;23;20019;-75
2022/01/26 07:28:11;;;;;;;2.00;1.85;;;;;;;;;;6199040;23;20142;-74
2022/01/26 07:30:37;;;;;;;6.95;4.00;;;;;;;;;;6219488;23;20000;-74
2022/01/26 07:33:05;;;;;;;2.20;2.10;;;;;;;;;;6256121;23;19996;-75
2022/01/26 07:35:33;;;;;;;10.02;4.45;;;;;;;;;;6181587;23;20219;-75
2022/01/26 07:38:13;;;;;;;0.65;0.65;;;;;;;;;;6193921;23;20008;-74
2022/01/26 07:40:44;;;;;;;9.20;2.72;;;;;;;;;;6151790;23;20016;-74
2022/01/26 07:43:11;;;;;;;3.83;3.58;;;;;;;;;;6161288;22;20214;-80
2022/01/26 07:45:42;;;;;;;10.68;2.72;;;;;;;;;;6214844;22;20016;-75
2022/01/26 07:48:13;;;;;;;10.82;6.65;;;;;;;;;;6192925;23;19993;-74
2022/01/26 07:51:00;;;;;;;1.15;1.13;;;;;;;;;;6183314;23;20387;-75
2022/01/26 07:53:51;;;;;;;1.75;1.67;;;;;;;;;;6114477;23;20004;-73
2022/01/26 07:59:12;;;;;;;5.70;5.30;;;;;;;;;;6206988;22;20017;-74
2022/01/26 08:01:53;;;;;;;3.42;3.22;;;;;;;;;;6176455;23;20055;-75
2022/01/26 08:04:29;;;;;;;4.57;4.22;;;;;;;;;;6190387;23;20023;-76
2022/01/26 08:07:10;;;;;;;3.40;2.20;;;;;;;;;;6206353;22;19997;-81
2022/01/26 08:09:42;;;;;;;2.55;2.45;;;;;;;;;;6229273;23;20008;-81
2022/01/26 08:12:08;;;;;;;10.45;5.25;;;;;;;;;;6228221;23;19996;-82
2022/01/26 08:14:34;;;;;;;5.50;4.82;;;;;;;;;;6230512;23;19993;-82
2022/01/26 08:17:06;;;;;;;3.38;3.10;;;;;;;;;;6220681;22;20017;-76
2022/01/26 08:19:38;;;;;;;3.42;3.17;;;;;;;;;;6214706;23;20008;-75
2022/01/26 08:22:33;;;;;;;4.00;3.60;;;;;;;;;;6211221;23;20031;-76
2022/01/26 08:25:03;;;;;;;1.80;1.70;;;;;;;;;;6182264;23;20012;-76
2022/01/26 08:30:39;;;;;;;0.95;0.95;;;;;;;;;;6217737;22;20012;-76
2022/01/26 08:33:23;;;;;;;1.08;1.08;;;;;;;;;;6194654;23;20000;-75
2022/01/26 08:35:53;;;;;;;2.20;2.10;;;;;;;;;;6215823;23;19997;-73
2022/01/26 08:38:26;;;;;;;1.60;1.50;;;;;;;;;;6186647;23;20009;-75
2022/01/26 08:41:13;;;;;;;2.85;2.65;;;;;;;;;;6165489;23;19997;-75
2022/01/26 08:44:02;;;;;;;3.05;2.85;;;;;;;;;;6234116;22;20410;-76
2022/01/26 08:49:25;;;;;;;4.82;4.35;;;;;;;;;;6189636;22;20361;-75
2022/01/26 08:52:06;;;;;;;1.92;1.83;;;;;;;;;;6188400;22;20022;-82
2022/01/26 08:54:32;;;;;;;1.75;1.65;;;;;;;;;;6225408;23;19992;-82
2022/01/26 08:56:58;;;;;;;2.75;2.50;;;;;;;;;;6218144;23;20326;-81
2022/01/26 08:59:26;;;;;;;2.65;2.45;;;;;;;;;;6200623;22;20013;-74
2022/01/26 09:01:53;;;;;;;1.20;1.20;;;;;;;;;;6181074;23;20395;-74
2022/01/26 09:04:32;;;;;;;5.20;1.10;;;;;;;;;;6188722;23;20003;-74
2022/01/26 09:07:32;;;;;;;2.17;1.85;;;;;;;;;;6184926;23;20024;-76
2022/01/26 09:10:06;;;;;;;1.40;1.25;;;;;;;;;;6208514;23;19992;-74
2022/01/26 09:12:37;;;;;;;2.45;1.42;;;;;;;;;;6159053;23;20001;-75
2022/01/26 09:15:06;;;;;;;0.73;0.73;;;;;;;;;;6183429;23;20051;-74
2022/01/26 09:17:35;;;;;;;1.52;1.40;;;;;;;;;;6196140;23;20012;-75
2022/01/26 09:20:16;;;;;;;8.98;4.20;;;;;;;;;;6183852;22;20005;-74
2022/01/26 09:22:45;;;;;;;6.78;3.47;;;;;;;;;;6161296;23;20013;-74
2022/01/26 09:25:12;;;;;;;2.42;2.25;;;;;;;;;;6135550;23;20307;-74
2022/01/26 09:27:45;;;;;;;1.95;1.85;;;;;;;;;;6161110;23;20079;-75
2022/01/26 09:31:08;;;;;;;5.87;3.57;;;;;;;;;;6163062;23;19997;-74
2022/01/26 09:33:37;;;;;;;0.60;0.60;;;;;;;;;;6154129;23;20130;-75
2022/01/26 09:36:45;;;;;;;3.20;2.08;;;;;;;;;;6137373;23;20296;-74
2022/01/26 09:39:20;;;;;;;2.80;2.60;;;;;;;;;;6177081;23;20090;-74
2022/01/26 09:44:40;;;;;;;2.92;2.70;;;;;;;;;;6215242;22;20013;-80
2022/01/26 09:47:07;;;;;;;3.28;3.05;;;;;;;;;;6218816;23;20391;-81
2022/01/26 09:49:49;;;;;;;2.53;2.28;;;;;;;;;;6150590;22;20028;-75
2022/01/26 09:52:55;;;;;;;;;;;;;;;;;;6246046;23;20031;-80
2022/01/26 09:55:22;;;;;;;0.50;0.50;;;;;;;;;;6249049;23;19903;-81
2022/01/26 09:57:48;;;;;;;2.20;2.10;;;;;;;;;;6248471;23;20408;-80
2022/01/26 10:00:14;;;;;;;2.75;2.22;;;;;;;;;;6222347;23;19998;-80
2022/01/26 10:02:43;;;;;;;10.52;2.15;;;;;;;;;;6247845;23;20000;-80
2022/01/26 10:05:11;;;;;;;4.70;4.25;;;;;;;;;;6221815;23;20000;-81
2022/01/26 10:07:53;;;;;;;2.97;2.75;;;;;;;;;;6221528;23;19992;-81
2022/01/26 10:18:49;;;;;;;3.00;2.75;;;;;;;;;;6237483;23;20015;-81
2022/01/26 10:21:15;;;;;;;1.45;1.35;;;;;;;;;;6248711;23;19993;-81
2022/01/26 10:23:42;;;;;;;4.15;3.78;;;;;;;;;;6221214;23;19996;-81
2022/01/26 10:26:12;;;;;;;1.60;1.55;;;;;;;;;;6200422;23;20417;-82
2022/01/26 10:28:44;;;;;;;5.65;4.70;;;;;;;;;;6223801;23;19992;-81
2022/01/26 10:31:14;;;;;;;2.30;2.15;;;;;;;;;;6249566;23;20313;-81
2022/01/26 10:33:56;;;;;;;1.52;1.42;;;;;;;;;;6226291;22;20012;-76
2022/01/26 10:39:30;;;;;;;4.07;3.50;;;;;;;;;;6203256;22;19916;-81
2022/01/26 10:42:00;;;;;;;7.15;5.35;;;;;;;;;;6250835;23;19992;-81
2022/01/26 10:44:32;;;;;;;0.50;0.50;;;;;;;;;;6254249;23;19992;-81
2022/01/26 10:47:04;;;;;;;1.90;1.80;;;;;;;;;;6224527;23;19992;-81
2022/01/26 10:49:56;;;;;;;2.17;2.08;;;;;;;;;;6250768;23;19992;-80
2022/01/26 10:52:36;;;;;;;6.15;5.57;;;;;;;;;;6253338;23;20019;-81
2022/01/26 10:55:03;;;;;;;2.58;2.33;;;;;;;;;;6251848;23;19992;-81
2022/01/26 10:57:29;;;;;;;3.90;3.60;;;;;;;;;;6251221;23;20408;-81
2022/01/26 10:59:55;;;;;;;2.50;2.38;;;;;;;;;;6250565;23;20314;-80
2022/01/26 11:02:26;;;;;;;6.47;3.17;;;;;;;;;;6225581;23;20049;-81
2022/01/26 11:04:53;;;;;;;4.88;4.43;;;;;;;;;;6224102;23;20000;-81
2022/01/26 11:07:19;;;;;;;1.27;1.17;;;;;;;;;;6249770;23;19988;-81
2022/01/26 11:09:48;;;;;;;0.70;0.70;;;;;;;;;;6249644;23;20318;-80
2022/01/26 11:12:16;;;;;;;5.13;3.00;;;;;;;;;;6223912;23;20425;-80
2022/01/26 11:14:49;;;;;;;7.03;5.72;;;;;;;;;;6250948;23;19988;-81
2022/01/26 11:17:27;;;;;;;3.10;2.90;;;;;;;;;;6223568;23;19996;-80
2022/01/26 11:19:54;;;;;;;1.02;1.02;;;;;;;;;;6249207;23;20000;-81
2022/01/26 11:22:26;;;;;;;2.80;2.60;;;;;;;;;;6250208;23;20012;-81
2022/01/26 11:24:52;;;;;;;0.82;0.82;;;;;;;;;;6223563;23;19999;-80
2022/01/26 11:27:19;;;;;;;3.28;3.08;;;;;;;;;;6249246;23;20405;-80
2022/01/26 11:29:48;;;;;;;3.72;2.10;;;;;;;;;;6225988;23;20012;-80
2022/01/26 11:32:28;;;;;;;8.68;3.88;;;;;;;;;;6249688;23;19993;-81
2022/01/26 11:34:55;;;;;;;5.93;5.40;;;;;;;;;;6250397;23;19988;-81
2022/01/26 11:37:37;;;;;;;4.97;4.60;;;;;;;;;;6249238;23;20059;-81
2022/01/26 11:45:05;;;;;;;1.98;1.92;;;;;;;;;;6249795;23;19996;-81
2022/01/26 11:45:37;;;;;;;6.95;6.30;;;;;;;;;;6222847;23;20450;-81
2022/01/26 11:50:38;;;;;;;6.22;2.75;;;;;;;;;;6180264;23;20028;-81
2022/01/26 11:53:05;;;;;;;9.45;4.28;;;;;;;;;;6249500;23;20048;-81
2022/01/26 11:55:38;;;;;;;2.67;2.50;;;;;;;;;;6226231;23;20038;-82
2022/01/26 12:00:40;;;;;;;5.70;5.20;;;;;;;;;;6187132;23;20344;-81
2022/01/26 12:03:18;;;;;;;4.88;4.43;;;;;;;;;;6189163;23;20001;-81
2022/01/26 12:05:48;;;;;;;3.17;3.08;;;;;;;;;;6163423;23;20056;-81
2022/01/26 12:08:14;;;;;;;2.25;2.15;;;;;;;;;;6190637;23;20335;-81
2022/01/26 12:10:43;;;;;;;5.70;3.10;;;;;;;;;;6165011;23;19981;-81
2022/01/26 12:13:11;;;;;;;2.60;2.50;;;;;;;;;;6189176;23;19989;-81
2022/01/26 12:32:19;;;;;;;7.50;5.55;;;;;;;;;;6189059;23;20071;-81
2022/01/26 12:45:24;;;;;;;36.03;3.70;;;;;;;;;;6188799;23;19989;-81
2022/01/26 12:47:51;;;;;;;7.80;4.63;;;;;;;;;;6189244;23;20064;-81
2022/01/26 12:50:17;;;;;;;4.40;3.45;;;;;;;;;;6163525;23;20008;-81
2022/01/26 12:52:47;;;;;;;3.42;3.22;;;;;;;;;;6165667;23;20046;-82
2022/01/26 12:55:24;;;;;;;11.98;4.80;;;;;;;;;;6189954;23;20395;-81
2022/01/26 12:57:50;;;;;;;1.40;1.38;;;;;;;;;;6187954;23;20400;-81
2022/01/26 13:00:17;;;;;;;4.28;3.33;;;;;;;;;;6188366;23;20043;-81
2022/01/26 13:02:43;;;;;;;3.78;3.47;;;;;;;;;;6162651;23;20004;-81
2022/01/26 13:05:10;;;;;;;2.92;2.67;;;;;;;;;;6187422;23;20410;-80
2022/01/26 13:07:36;;;;;;;1.85;1.75;;;;;;;;;;6188869;23;19993;-81
2022/01/26 13:10:12;;;;;;;3.15;2.95;;;;;;;;;;6188284;23;19992;-81
2022/01/26 13:12:38;;;;;;;3.05;2.80;;;;;;;;;;6187823;23;19993;-81
2022/01/26 13:15:20;;;;;;;4.63;4.20;;;;;;;;;;6187921;23;20008;-81
2022/01/26 13:17:52;;;;;;;2.40;2.20;;;;;;;;;;6189233;23;20008;-81
2022/01/26 13:20:41;;;;;;;2.58;2.13;;;;;;;;;;6189662;23;20060;-81
2022/01/26 13:33:32;;;;;;;2.92;2.70;;;;;;;;;;6161622;23;19997;-81
2022/01/26 13:47:14;;;;;;;13.32;7.13;;;;;;;;;;6188881;23;19993;-81
2022/01/26 13:59:54;;;;;;;5.32;4.93;;;;;;;;;;6187613;23;20016;-81
2022/01/26 14:02:20;;;;;;;2.83;2.65;;;;;;;;;;6162351;23;19997;-81
2022/01/26 14:04:46;;;;;;;2.97;2.78;;;;;;;;;;6162213;23;20091;-80
2022/01/26 14:07:12;;;;;;;6.22;4.03;;;;;;;;;;6188909;23;19996;-80
2022/01/26 14:09:38;;;;;;;10.95;5.75;;;;;;;;;;6187798;23;20395;-81
2022/01/26 14:12:11;;;;;;;4.47;4.07;;;;;;;;;;6187625;23;19993;-80
2022/01/26 14:14:42;;;;;;;2.28;2.15;;;;;;;;;;6161791;23;20442;-80
2022/01/26 14:17:15;;;;;;;4.97;4.57;;;;;;;;;;6190036;23;20001;-80
2022/01/26 14:27:46;;;;;;;6.35;2.55;;;;;;;;;;6189004;23;19993;-80
2022/01/26 14:35:45;;;;;;;9.93;5.45;;;;;;;;;;6198493;23;20080;-80
2022/01/26 15:40:22;;;;;;;4.28;3.97;;;;;;;;;;6189230;23;20051;-80
2022/01/26 15:51:03;;;;;;;6.55;5.95;;;;;;;;;;6191153;23;20036;-79
2022/01/26 15:59:03;;;;;;;7.13;5.38;;;;;;;;;;6191004;23;20062;-80
2022/01/26 16:04:41;;;;;;;2.55;2.42;;;;;;;;;;6189872;23;19997;-81
2022/01/26 16:07:46;;;;;;;4.00;3.10;;;;;;;;;;6191382;23;20012;-80
2022/01/26 16:20:48;;;;;;;3.47;3.17;;;;;;;;;;6189225;23;19993;-80
2022/01/26 16:26:33;;;;;;;10.25;7.00;;;;;;;;;;6189102;23;20391;-80
2022/01/26 18:33:22;;;;;;;12.18;6.82;;;;;;;;;;6188591;23;19985;-80
2022/01/26 18:49:25;;;;;;;10.27;9.25;;;;;;;;;;6187511;23;19996;-80
2022/01/26 18:51:53;;;;;;;5.43;4.78;;;;;;;;;;6161634;23;20005;-80
2022/01/26 18:54:21;;;;;;;15.52;6.85;;;;;;;;;;6188387;23;20056;-80
2022/01/26 18:56:47;;;;;;;3.97;3.70;;;;;;;;;;6188433;23;20403;-80
2022/01/26 18:59:14;;;;;;;7.13;6.65;;;;;;;;;;6186637;23;20005;-80
2022/01/26 19:01:41;;;;;;;7.20;5.15;;;;;;;;;;6137126;23;20001;-80
2022/01/26 19:04:07;;;;;;;4.88;4.57;;;;;;;;;;6163950;23;20388;-80
2022/01/26 19:06:33;;;;;;;4.05;3.75;;;;;;;;;;6189398;23;19997;-80
2022/01/26 19:08:59;;;;;;;6.75;6.18;;;;;;;;;;6190150;23;19997;-80
2022/01/26 19:11:26;;;;;;;11.48;9.57;;;;;;;;;;6190001;23;20447;-80
2022/01/26 19:13:52;;;;;;;7.82;7.18;;;;;;;;;;6189715;23;19989;-80
2022/01/26 19:16:35;;;;;;;14.27;8.43;;;;;;;;;;6190005;23;19997;-80
2022/01/26 19:19:14;;;;;;;19.17;5.95;;;;;;;;;;6189777;23;20040;-80
2022/01/26 19:27:21;;;;;;;7.05;6.50;;;;;;;;;;6189223;23;20311;-79
2022/01/26 19:30:07;;;;;;;4.25;3.78;;;;;;;;;;6189125;23;20003;-79
2022/01/26 19:41:22;;;;;;;7.50;6.57;;;;;;;;;;6189414;23;20053;-79
2022/01/26 19:43:55;;;;;;;6.05;5.60;;;;;;;;;;6189053;23;20000;-79
2022/01/26 19:46:28;;;;;;;19.67;9.10;;;;;;;;;;6189765;23;20004;-79
2022/01/26 19:51:52;;;;;;;2.85;2.67;;;;;;;;;;6189293;23;20028;-80
2022/01/26 19:54:18;;;;;;;6.78;6.32;;;;;;;;;;6189652;23;20009;-79
2022/01/26 19:56:44;;;;;;;6.20;5.65;;;;;;;;;;6186967;23;20076;-79
2022/01/26 19:59:10;;;;;;;8.93;7.45;;;;;;;;;;6188259;23;20012;-79
2022/01/26 20:01:36;;;;;;;11.88;5.97;;;;;;;;;;6189175;23;19989;-79
2022/01/26 20:04:02;;;;;;;6.70;4.80;;;;;;;;;;6188833;23;19997;-79
2022/01/26 20:06:28;;;;;;;5.57;5.07;;;;;;;;;;6162505;23;19995;-79
2022/01/26 20:09:00;;;;;;;9.50;5.90;;;;;;;;;;6188016;23;20021;-79
2022/01/26 20:11:39;;;;;;;10.30;8.00;;;;;;;;;;6163159;23;20000;-79
2022/01/26 20:14:06;;;;;;;5.95;5.45;;;;;;;;;;6197403;23;20474;-79
2022/01/26 20:16:33;;;;;;;6.35;5.85;;;;;;;;;;6189511;23;19989;-79
2022/01/26 20:18:59;;;;;;;13.90;7.45;;;;;;;;;;6188244;23;20411;-79
2022/01/26 20:21:25;;;;;;;10.40;7.75;;;;;;;;;;6188373;23;19989;-79
2022/01/26 20:23:52;;;;;;;10.95;9.85;;;;;;;;;;6187973;23;20021;-79
2022/01/26 20:26:18;;;;;;;8.50;7.47;;;;;;;;;;6189037;23;20303;-79
2022/01/26 20:28:45;;;;;;;6.13;5.55;;;;;;;;;;6163466;23;20391;-79
2022/01/26 20:31:20;;;;;;;8.13;5.63;;;;;;;;;;6192149;23;19990;-80
2022/01/26 20:33:47;;;;;;;6.47;4.38;;;;;;;;;;6192840;23;20105;-80
2022/01/26 20:36:14;;;;;;;5.75;4.93;;;;;;;;;;6193841;23;19996;-80
2022/01/26 20:38:40;;;;;;;6.97;6.25;;;;;;;;;;6193062;23;20005;-80
2022/01/26 20:41:06;;;;;;;8.60;6.55;;;;;;;;;;6192136;23;20387;-80
2022/01/26 20:43:32;;;;;;;5.35;4.95;;;;;;;;;;6192389;23;19993;-80
2022/01/26 20:46:00;;;;;;;9.00;6.38;;;;;;;;;;6191567;23;20012;-80
2022/01/26 20:48:26;;;;;;;5.35;4.63;;;;;;;;;;6166722;23;20480;-80
2022/01/26 20:50:53;;;;;;;11.43;8.38;;;;;;;;;;6166580;23;19989;-80
2022/01/26 20:53:19;;;;;;;7.25;5.38;;;;;;;;;;6192102;23;20319;-80
2022/01/26 20:55:45;;;;;;;15.23;7.93;;;;;;;;;;6193488;23;19989;-81
2022/01/26 20:58:11;;;;;;;8.40;6.82;;;;;;;;;;6192747;23;20013;-80
2022/01/26 21:00:37;;;;;;;6.97;5.60;;;;;;;;;;6192876;23;19989;-80
2022/01/26 21:03:03;;;;;;;3.97;3.72;;;;;;;;;;6193004;23;20384;-80
2022/01/26 21:05:29;;;;;;;5.45;5.07;;;;;;;;;;6192941;23;20346;-80
2022/01/26 21:07:56;;;;;;;5.43;4.93;;;;;;;;;;6141999;23;20008;-80
2022/01/26 21:10:23;;;;;;;5.80;4.80;;;;;;;;;;6193403;23;20416;-80
2022/01/26 21:12:49;;;;;;;6.50;5.72;;;;;;;;;;6191501;23;19993;-80
2022/01/26 21:15:17;;;;;;;7.88;7.05;;;;;;;;;;6192948;23;19985;-80
2022/01/26 21:17:43;;;;;;;10.32;5.47;;;;;;;;;;6166920;23;19989;-80
2022/01/26 21:20:12;;;;;;;12.73;4.75;;;;;;;;;;6166205;23;20062;-80
2022/01/26 21:22:38;;;;;;;6.40;5.78;;;;;;;;;;6192927;23;20072;-80
2022/01/26 21:25:05;;;;;;;11.30;5.03;;;;;;;;;;6192630;23;19989;-80
2022/01/26 21:27:32;;;;;;;5.35;4.70;;;;;;;;;;6164959;23;20310;-79
2022/01/26 21:29:58;;;;;;;7.28;6.63;;;;;;;;;;6196648;23;20064;-80
2022/01/26 21:32:25;;;;;;;3.95;3.70;;;;;;;;;;6193078;23;19997;-80
2022/01/26 21:34:51;;;;;;;4.63;4.10;;;;;;;;;;6190810;23;20000;-80
2022/01/26 21:37:17;;;;;;;14.27;4.70;;;;;;;;;;6192861;23;19993;-80
2022/01/26 21:39:44;;;;;;;4.80;4.50;;;;;;;;;;6165903;23;20005;-80
2022/01/26 21:42:11;;;;;;;7.43;5.00;;;;;;;;;;6192926;23;20303;-80
2022/01/26 21:44:37;;;;;;;9.75;6.75;;;;;;;;;;6166367;23;20347;-80
2022/01/26 21:47:03;;;;;;;7.70;7.10;;;;;;;;;;6166407;23;20418;-80
2022/01/26 21:49:29;;;;;;;6.28;5.80;;;;;;;;;;6141390;23;19996;-80
2022/01/26 21:51:55;;;;;;;7.80;7.20;;;;;;;;;;6190677;23;20032;-81
2022/01/26 21:54:22;;;;;;;4.75;4.32;;;;;;;;;;6190873;23;19996;-80
2022/01/26 21:56:48;;;;;;;7.80;6.90;;;;;;;;;;6191904;23;20399;-80
2022/01/26 21:59:14;;;;;;;6.25;5.82;;;;;;;;;;6192631;23;20389;-80
2022/01/26 22:01:40;;;;;;;8.63;5.00;;;;;;;;;;6190811;23;20048;-80
2022/01/26 22:04:06;;;;;;;13.00;8.45;;;;;;;;;;6192132;23;20069;-79
2022/01/26 22:06:32;;;;;;;10.07;7.07;;;;;;;;;;6166636;23;20004;-80
2022/01/26 22:08:59;;;;;;;2.80;2.65;;;;;;;;;;6192563;23;19989;-80
2022/01/26 22:11:25;;;;;;;4.32;3.90;;;;;;;;;;6191802;23;19993;-80
2022/01/26 22:13:51;;;;;;;8.77;6.93;;;;;;;;;;6192274;23;19993;-80
2022/01/26 22:16:17;;;;;;;7.40;5.90;;;;;;;;;;6192550;23;20108;-80
2022/01/26 22:18:43;;;;;;;4.43;4.15;;;;;;;;;;6191247;23;20005;-80
2022/01/26 22:21:12;;;;;;;5.70;5.22;;;;;;;;;;6192748;23;20027;-80
2022/01/26 22:23:38;;;;;;;5.00;4.55;;;;;;;;;;6190999;23;19993;-80
2022/01/26 22:26:04;;;;;;;14.98;6.50;;;;;;;;;;6191836;23;20021;-80
2022/01/26 22:28:32;;;;;;;3.65;3.22;;;;;;;;;;6192309;23;20501;-80